createdAt,value
2022-12-16T00:02:21.550Z,33.20
2022-12-16T00:04:48.013Z,34.17
2022-12-16T00:07:14.486Z,35.00
2022-12-16T00:09:40.982Z,35.43
2022-12-16T00:12:07.419Z,34.90
2022-12-16T00:14:34.654Z,32.20
2022-12-16T00:17:01.076Z,31.90
2022-12-16T00:19:27.692Z,32.93
2022-12-16T00:21:54.106Z,29.90
2022-12-16T00:24:21.185Z,33.83
2022-12-16T00:26:47.681Z,36.03
2022-12-16T00:29:14.209Z,33.53
2022-12-16T00:31:40.685Z,34.70
2022-12-16T00:34:07.159Z,31.00
2022-12-16T00:36:34.608Z,35.67
2022-12-16T00:39:01.203Z,30.37
2022-12-16T00:41:27.680Z,31.87
2022-12-16T00:43:54.081Z,30.90
2022-12-16T00:46:21.149Z,25.50
2022-12-16T00:48:47.588Z,36.43
2022-12-16T00:51:14.166Z,34.13
2022-12-16T00:53:40.561Z,34.27
2022-12-16T00:56:09.138Z,31.60
2022-12-16T00:58:36.560Z,29.87
2022-12-16T01:01:03.832Z,32.23
2022-12-16T01:03:30.731Z,29.47
2022-12-16T01:05:57.373Z,30.97
2022-12-16T01:08:23.769Z,34.60
2022-12-16T01:10:55.446Z,37.63
2022-12-16T01:13:23.010Z,32.43
2022-12-16T01:15:49.546Z,32.40
2022-12-16T01:18:18.747Z,33.87
2022-12-16T01:20:45.254Z,33.07
2022-12-16T01:23:11.661Z,33.27
2022-12-16T01:25:38.117Z,36.40
2022-12-16T01:28:04.608Z,34.07
2022-12-16T01:30:31.488Z,34.30
2022-12-16T01:32:57.880Z,37.57
2022-12-16T01:35:52.181Z,35.27
2022-12-16T01:38:10.824Z,33.40
2022-12-16T01:40:37.242Z,34.70
2022-12-16T01:43:11.312Z,34.87
2022-12-16T01:45:38.798Z,35.40
2022-12-16T01:48:28.004Z,34.03
2022-12-16T01:50:59.765Z,33.90
2022-12-16T01:53:26.364Z,39.33
2022-12-16T01:55:53.488Z,33.20
2022-12-16T01:58:24.067Z,34.50
2022-12-16T02:00:50.782Z,34.17
2022-12-16T02:03:17.623Z,39.13
2022-12-16T02:05:44.922Z,33.67
2022-12-16T02:08:19.362Z,32.63
2022-12-16T02:11:19.442Z,36.77
2022-12-16T02:13:54.162Z,35.23
2022-12-16T02:16:30.004Z,31.47
2022-12-16T02:19:01.970Z,32.87
2022-12-16T02:21:28.311Z,34.23
2022-12-16T02:24:33.808Z,33.50
2022-12-16T02:27:12.574Z,32.57
2022-12-16T02:30:03.316Z,39.47
2022-12-16T02:33:02.080Z,36.17
2022-12-16T02:35:50.375Z,36.10
2022-12-16T02:38:26.257Z,37.73
2022-12-16T02:40:57.723Z,32.73
2022-12-16T02:43:57.474Z,34.73
2022-12-16T02:46:26.761Z,34.63
2022-12-16T02:48:54.247Z,33.30
2022-12-16T02:51:22.148Z,37.33
2022-12-16T02:53:49.101Z,33.20
2022-12-16T02:56:27.773Z,32.93
2022-12-16T02:59:12.743Z,35.80
2022-12-16T03:01:50.121Z,38.37
2022-12-16T03:04:21.835Z,34.23
2022-12-16T03:06:50.229Z,35.10
2022-12-16T03:09:20.533Z,34.23
2022-12-16T03:11:48.265Z,36.40
2022-12-16T03:14:16.773Z,36.23
2022-12-16T03:16:44.296Z,34.63
2022-12-16T03:19:11.755Z,39.53
2022-12-16T03:21:55.857Z,36.73
2022-12-16T03:24:22.247Z,39.20
2022-12-16T03:26:57.113Z,35.37
2022-12-16T03:29:40.579Z,29.73
2022-12-16T03:32:15.678Z,34.63
2022-12-16T03:34:45.591Z,32.57
2022-12-16T03:37:12.974Z,38.43
2022-12-16T03:39:46.461Z,33.10
2022-12-16T03:42:15.354Z,30.97
2022-12-16T03:44:48.849Z,35.27
2022-12-16T03:47:21.507Z,32.13
2022-12-16T03:49:49.951Z,44.90
2022-12-16T03:52:16.593Z,35.23
2022-12-16T03:54:43.005Z,33.60
2022-12-16T03:57:15.038Z,34.67
2022-12-16T03:59:42.095Z,34.07
2022-12-16T04:02:08.707Z,36.97
2022-12-16T04:04:35.405Z,37.97
2022-12-16T04:07:20.206Z,34.10
2022-12-16T04:09:47.732Z,34.93
2022-12-16T04:12:33.365Z,33.97
2022-12-16T04:15:18.501Z,35.47
2022-12-16T04:18:03.507Z,34.10
2022-12-16T04:20:50.482Z,32.37
2022-12-16T04:23:36.316Z,35.73
2022-12-16T04:26:02.998Z,32.93
2022-12-16T04:28:29.679Z,36.70
2022-12-16T04:30:56.482Z,36.17
2022-12-16T04:33:41.594Z,38.30
2022-12-16T04:36:27.117Z,33.97
2022-12-16T04:39:12.162Z,34.70
2022-12-16T04:41:57.175Z,36.93
2022-12-16T04:44:42.337Z,35.07
2022-12-16T04:47:27.497Z,32.57
2022-12-16T04:50:12.449Z,32.07
2022-12-16T04:52:57.703Z,35.40
2022-12-16T04:55:42.578Z,33.40
2022-12-16T04:58:27.662Z,32.07
2022-12-16T05:01:12.750Z,34.97
2022-12-16T05:03:57.750Z,32.03
2022-12-16T05:06:42.613Z,32.63
2022-12-16T05:09:27.719Z,34.37
2022-12-16T05:12:12.819Z,33.00
2022-12-16T05:14:57.945Z,34.37
2022-12-16T05:17:43.012Z,32.27
2022-12-16T05:20:28.527Z,33.60
2022-12-16T05:23:14.733Z,34.73
2022-12-16T05:25:59.852Z,36.27
2022-12-16T05:28:44.717Z,34.70
2022-12-16T05:31:29.979Z,37.23
2022-12-16T05:34:15.115Z,36.53
2022-12-16T05:37:00.315Z,35.20
2022-12-16T05:39:45.227Z,37.70
2022-12-16T05:42:30.302Z,37.10
2022-12-16T05:45:15.268Z,33.93
2022-12-16T05:48:00.244Z,39.67
2022-12-16T05:50:45.181Z,35.00
2022-12-16T05:53:30.801Z,38.73
2022-12-16T05:56:15.817Z,31.80
2022-12-16T05:59:00.806Z,37.13
2022-12-16T06:01:46.048Z,35.20
2022-12-16T06:04:31.148Z,35.33
2022-12-16T06:07:16.100Z,35.37
2022-12-16T06:10:01.146Z,39.50
2022-12-16T06:12:46.225Z,36.13
2022-12-16T06:15:31.387Z,39.37
2022-12-16T06:18:16.262Z,36.53
2022-12-16T06:21:01.979Z,35.23
2022-12-16T06:23:47.120Z,35.23
2022-12-16T06:26:32.062Z,32.63
2022-12-16T06:29:17.166Z,35.27
2022-12-16T06:32:02.283Z,29.60
2022-12-16T06:34:47.419Z,36.63
2022-12-16T06:37:32.479Z,30.13
2022-12-16T06:40:17.389Z,32.20
2022-12-16T06:43:02.400Z,35.03
2022-12-16T06:45:47.414Z,35.47
2022-12-16T06:48:32.510Z,36.77
2022-12-16T06:51:17.532Z,29.83
2022-12-16T06:54:02.690Z,35.20
2022-12-16T06:56:47.774Z,34.33
2022-12-16T06:59:32.845Z,42.67
2022-12-16T07:02:18.038Z,37.87
2022-12-16T07:05:03.269Z,32.87
2022-12-16T07:07:48.550Z,38.20
2022-12-16T07:10:33.596Z,37.03
2022-12-16T07:13:19.303Z,34.83
2022-12-16T07:16:10.519Z,38.57
2022-12-16T07:18:55.503Z,38.97
2022-12-16T07:21:40.633Z,38.13
2022-12-16T07:24:25.597Z,41.03
2022-12-16T07:27:10.609Z,36.43
2022-12-16T07:29:55.673Z,36.13
2022-12-16T07:32:40.919Z,35.37
2022-12-16T07:35:33.721Z,31.60
2022-12-16T07:38:18.566Z,45.07
2022-12-16T07:41:03.648Z,49.70
2022-12-16T07:43:48.804Z,47.87
2022-12-16T07:46:33.975Z,54.90
2022-12-16T07:49:19.181Z,51.47
2022-12-16T07:52:03.943Z,57.60
2022-12-16T07:54:49.150Z,51.03
2022-12-16T07:57:34.272Z,47.83
2022-12-16T08:00:19.249Z,68.23
2022-12-16T08:03:04.618Z,59.13
2022-12-16T08:05:50.073Z,65.47
2022-12-16T08:08:36.089Z,75.30
2022-12-16T08:11:21.108Z,80.30
2022-12-16T08:14:06.072Z,81.47
2022-12-16T08:16:51.238Z,84.63
2022-12-16T08:19:36.238Z,78.20
2022-12-16T08:22:21.336Z,68.63
2022-12-16T08:25:06.449Z,72.97
2022-12-16T08:27:51.752Z,62.87
2022-12-16T08:30:36.965Z,48.97
2022-12-16T08:33:29.233Z,47.43
2022-12-16T08:36:16.959Z,47.47
2022-12-16T08:39:02.677Z,48.60
2022-12-16T08:41:47.783Z,56.07
2022-12-16T08:44:32.658Z,60.80
2022-12-16T08:47:18.044Z,52.63
2022-12-16T08:50:03.188Z,61.50
2022-12-16T08:52:48.190Z,62.97
2022-12-16T08:55:33.238Z,56.80
2022-12-16T08:58:18.315Z,54.70
2022-12-16T09:01:07.051Z,50.60
2022-12-16T09:03:54.114Z,45.50
2022-12-16T09:06:40.890Z,49.80
2022-12-16T09:09:26.557Z,54.17
2022-12-16T09:12:11.501Z,46.20
2022-12-16T09:14:56.680Z,50.40
2022-12-16T09:17:41.655Z,41.83
2022-12-16T09:20:27.221Z,47.07
2022-12-16T09:23:12.166Z,44.83
2022-12-16T09:25:57.340Z,48.77
2022-12-16T09:28:42.556Z,47.20
2022-12-16T09:31:27.855Z,53.47
2022-12-16T09:34:13.013Z,52.33
2022-12-16T09:36:58.056Z,52.30
2022-12-16T09:39:45.790Z,56.83
2022-12-16T09:42:50.817Z,51.50
2022-12-16T09:46:11.509Z,51.30
2022-12-16T09:49:25.421Z,42.30
2022-12-16T09:52:15.004Z,45.80
2022-12-16T09:55:04.652Z,42.50
2022-12-16T09:57:51.710Z,44.40
2022-12-16T10:00:42.173Z,48.57
2022-12-16T10:04:00.064Z,39.87
2022-12-16T10:07:00.584Z,41.53
2022-12-16T10:09:50.558Z,42.07
2022-12-16T10:12:56.297Z,42.37
2022-12-16T10:15:57.989Z,41.50
2022-12-16T10:19:06.073Z,38.60
2022-12-16T10:21:56.002Z,39.30
2022-12-16T10:25:07.269Z,38.47
2022-12-16T10:28:04.554Z,38.53
2022-12-16T10:30:51.102Z,37.10
2022-12-16T10:33:37.908Z,39.93
2022-12-16T10:36:23.548Z,38.63
2022-12-16T10:39:14.414Z,38.10
2022-12-16T10:42:04.303Z,38.57
2022-12-16T10:45:14.175Z,37.40
2022-12-16T10:47:59.294Z,34.80
2022-12-16T10:50:44.482Z,37.67
2022-12-16T10:53:35.062Z,34.93
2022-12-16T10:56:26.598Z,38.20
2022-12-16T10:59:18.336Z,43.23
2022-12-16T11:02:35.452Z,35.47
2022-12-16T11:05:20.782Z,39.67
2022-12-16T11:08:05.807Z,39.30
2022-12-16T11:11:02.433Z,38.10
2022-12-16T11:13:55.044Z,39.93
2022-12-16T11:16:47.638Z,35.30
2022-12-16T11:19:44.585Z,40.97
2022-12-16T11:22:36.937Z,36.40
2022-12-16T11:25:31.193Z,40.73
2022-12-16T11:28:23.070Z,42.77
2022-12-16T11:31:11.995Z,37.33
2022-12-16T11:33:58.334Z,38.57
2022-12-16T11:36:45.298Z,46.70
2022-12-16T11:39:33.794Z,41.03
2022-12-16T11:42:19.470Z,39.37
2022-12-16T11:45:10.156Z,44.57
2022-12-16T11:48:04.892Z,39.00
2022-12-16T11:50:53.091Z,41.67
2022-12-16T11:53:45.120Z,44.27
2022-12-16T11:56:42.895Z,42.27
2022-12-16T11:59:43.446Z,44.73
2022-12-16T12:02:37.552Z,49.77
2022-12-16T12:05:22.944Z,48.37
2022-12-16T12:08:23.559Z,49.50
2022-12-16T12:11:32.344Z,46.47
2022-12-16T12:14:23.602Z,51.83
2022-12-16T12:17:20.970Z,44.40
2022-12-16T12:20:17.314Z,50.53
2022-12-16T12:23:02.700Z,50.83
2022-12-16T12:26:13.197Z,48.07
2022-12-16T12:29:14.122Z,48.77
2022-12-16T12:32:25.622Z,42.13
2022-12-16T12:35:22.287Z,41.20
2022-12-16T12:38:33.568Z,42.70
2022-12-16T12:41:37.924Z,39.47
2022-12-16T12:44:36.760Z,43.83
2022-12-16T12:47:32.814Z,47.57
2022-12-16T12:50:32.768Z,41.43
2022-12-16T12:53:27.615Z,41.67
2022-12-16T12:56:48.080Z,39.40
2022-12-16T13:00:03.935Z,41.17
2022-12-16T13:03:34.003Z,41.67
2022-12-16T13:06:19.948Z,42.90
2022-12-16T13:09:08.108Z,41.87
2022-12-16T13:11:53.968Z,40.53
2022-12-16T13:14:49.130Z,40.00
2022-12-16T13:17:35.036Z,37.03
2022-12-16T13:20:20.926Z,43.17
2022-12-16T13:23:06.068Z,43.70
2022-12-16T13:26:10.344Z,44.50
2022-12-16T13:28:57.898Z,37.50
2022-12-16T13:31:43.571Z,42.80
2022-12-16T13:34:28.606Z,40.37
2022-12-16T13:37:19.485Z,43.20
2022-12-16T13:40:24.208Z,36.30
2022-12-16T13:43:12.308Z,35.67
2022-12-16T13:46:23.037Z,45.83
2022-12-16T13:49:08.508Z,38.20
2022-12-16T13:51:56.524Z,38.83
2022-12-16T13:54:55.110Z,37.07
2022-12-16T13:57:42.635Z,34.90
2022-12-16T14:00:41.967Z,35.13
2022-12-16T14:03:38.698Z,36.53
2022-12-16T14:06:27.745Z,31.23
2022-12-16T14:09:13.174Z,36.20
2022-12-16T14:11:58.475Z,31.00
2022-12-16T14:14:54.925Z,34.63
2022-12-16T14:17:52.079Z,34.73
2022-12-16T14:20:49.389Z,35.83
2022-12-16T14:23:55.725Z,37.17
2022-12-16T14:26:39.289Z,40.63
2022-12-16T14:29:46.240Z,43.20
2022-12-16T14:32:52.417Z,32.93
2022-12-16T14:35:41.934Z,33.93
2022-12-16T14:38:49.085Z,37.70
2022-12-16T14:41:37.583Z,36.73
2022-12-16T14:44:24.632Z,52.00
2022-12-16T14:47:10.269Z,49.83
2022-12-16T14:49:55.321Z,39.23
2022-12-16T14:52:43.002Z,32.67
2022-12-16T14:55:49.414Z,39.60
2022-12-16T14:58:36.972Z,35.57
2022-12-16T15:01:32.538Z,38.07
2022-12-16T15:04:18.845Z,31.33
2022-12-16T15:07:07.051Z,36.40
2022-12-16T15:10:00.609Z,35.87
2022-12-16T15:12:48.152Z,36.13
2022-12-16T15:15:51.388Z,36.20
2022-12-16T15:18:40.615Z,35.67
2022-12-16T15:21:26.128Z,38.73
2022-12-16T15:24:11.271Z,39.53
2022-12-16T15:26:56.163Z,37.13
2022-12-16T15:29:55.488Z,34.43
2022-12-16T15:32:52.674Z,41.90
2022-12-16T15:36:04.871Z,37.30
2022-12-16T15:38:51.788Z,31.60
2022-12-16T15:41:42.209Z,36.30
2022-12-16T15:44:38.377Z,37.93
2022-12-16T15:47:24.442Z,35.27
2022-12-16T15:50:09.667Z,36.67
2022-12-16T15:52:59.755Z,39.60
2022-12-16T15:55:46.433Z,37.67
2022-12-16T15:58:47.396Z,41.87
2022-12-16T16:01:34.717Z,39.30
2022-12-16T16:04:20.457Z,40.00
2022-12-16T16:07:11.987Z,40.13
2022-12-16T16:09:58.151Z,48.30
2022-12-16T16:12:43.907Z,46.27
2022-12-16T16:15:31.130Z,46.00
2022-12-16T16:18:18.749Z,42.93
2022-12-16T16:21:04.479Z,40.63
2022-12-16T16:23:51.173Z,45.47
2022-12-16T16:26:38.873Z,47.87
2022-12-16T16:29:24.209Z,41.87
2022-12-16T16:32:09.423Z,40.93
2022-12-16T16:34:54.307Z,42.47
2022-12-16T16:37:40.504Z,44.33
2022-12-16T16:40:41.253Z,49.17
2022-12-16T16:43:26.265Z,50.37
2022-12-16T16:46:13.196Z,40.10
2022-12-16T16:48:58.698Z,39.93
2022-12-16T16:51:43.756Z,45.63
2022-12-16T16:54:28.820Z,46.67
2022-12-16T16:57:13.796Z,49.90
2022-12-16T16:59:58.779Z,51.13
2022-12-16T17:02:43.985Z,46.50
2022-12-16T17:05:29.759Z,45.13
2022-12-16T17:08:15.208Z,50.00
2022-12-16T17:11:00.833Z,49.27
2022-12-16T17:13:45.920Z,43.43
2022-12-16T17:16:32.134Z,53.43
2022-12-16T17:19:17.789Z,51.37
2022-12-16T17:22:02.631Z,46.87
2022-12-16T17:24:50.316Z,48.87
2022-12-16T17:27:40.790Z,48.20
2022-12-16T17:30:40.789Z,45.67
2022-12-16T17:33:30.176Z,42.50
2022-12-16T17:36:15.313Z,42.40
2022-12-16T17:39:01.765Z,47.70
2022-12-16T17:41:48.296Z,45.23
2022-12-16T17:44:33.381Z,44.40
2022-12-16T17:47:18.810Z,44.27
2022-12-16T17:50:03.850Z,44.60
2022-12-16T17:52:49.251Z,51.03
2022-12-16T17:55:34.339Z,50.37
2022-12-16T17:58:19.527Z,43.13
2022-12-16T18:01:04.491Z,52.57
2022-12-16T18:03:49.279Z,44.03
2022-12-16T18:06:34.346Z,49.50
2022-12-16T18:09:19.212Z,47.33
2022-12-16T18:12:04.182Z,50.17
2022-12-16T18:14:49.243Z,55.80
2022-12-16T18:17:34.567Z,52.83
2022-12-16T18:20:19.691Z,49.53
2022-12-16T18:23:04.625Z,52.87
2022-12-16T18:25:49.719Z,51.40
2022-12-16T18:28:34.767Z,53.43
2022-12-16T18:31:23.807Z,59.07
2022-12-16T18:34:08.961Z,53.20
2022-12-16T18:36:54.063Z,54.47
2022-12-16T18:39:38.997Z,54.17
2022-12-16T18:42:24.194Z,49.87
2022-12-16T18:45:09.628Z,52.97
2022-12-16T18:47:54.719Z,58.27
2022-12-16T18:50:39.932Z,48.07
2022-12-16T18:53:25.119Z,51.40
2022-12-16T18:56:20.576Z,57.73
2022-12-16T18:59:05.725Z,54.13
2022-12-16T19:01:51.113Z,55.70
2022-12-16T19:04:36.087Z,51.97
2022-12-16T19:07:21.076Z,51.63
2022-12-16T19:10:05.985Z,54.97
2022-12-16T19:12:51.112Z,55.47
2022-12-16T19:15:41.022Z,52.80
2022-12-16T19:18:26.463Z,55.10
2022-12-16T19:21:15.518Z,51.53
2022-12-16T19:24:01.122Z,53.33
2022-12-16T19:26:45.949Z,48.27
2022-12-16T19:29:30.771Z,52.27
2022-12-16T19:32:15.855Z,49.10
2022-12-16T19:35:01.019Z,51.30
2022-12-16T19:37:46.117Z,57.30
2022-12-16T19:40:31.179Z,54.93
2022-12-16T19:43:16.359Z,57.10
2022-12-16T19:46:01.413Z,54.17
2022-12-16T19:48:46.608Z,54.33
2022-12-16T19:51:36.107Z,51.87
2022-12-16T19:54:21.371Z,63.27
2022-12-16T19:57:06.318Z,56.40
2022-12-16T19:59:51.711Z,55.70
2022-12-16T20:02:37.170Z,56.27
2022-12-16T20:05:22.472Z,56.80
2022-12-16T20:08:07.521Z,59.40
2022-12-16T20:10:54.896Z,57.20
2022-12-16T20:13:41.373Z,54.97
2022-12-16T20:16:28.344Z,57.53
2022-12-16T20:19:13.537Z,50.13
2022-12-16T20:22:04.558Z,47.57
2022-12-16T20:24:51.352Z,49.67
2022-12-16T20:27:36.883Z,47.90
2022-12-16T20:30:22.518Z,47.37
2022-12-16T20:33:07.538Z,50.77
2022-12-16T20:35:52.314Z,53.00
2022-12-16T20:38:41.138Z,50.70
2022-12-16T20:41:26.333Z,58.33
2022-12-16T20:44:11.232Z,45.43
2022-12-16T20:46:56.443Z,53.07
2022-12-16T20:49:41.730Z,51.97
2022-12-16T20:52:26.654Z,46.93
2022-12-16T20:55:11.736Z,48.53
2022-12-16T20:57:56.801Z,53.90
2022-12-16T21:00:42.037Z,51.87
2022-12-16T21:03:27.679Z,46.40
2022-12-16T21:06:12.839Z,56.93
2022-12-16T21:08:58.112Z,50.50
2022-12-16T21:11:43.163Z,54.27
2022-12-16T21:14:28.414Z,52.43
2022-12-16T21:17:13.557Z,54.30
2022-12-16T21:20:15.046Z,49.73
2022-12-16T21:23:00.447Z,48.10
2022-12-16T21:25:45.355Z,50.17
2022-12-16T21:28:31.423Z,49.10
2022-12-16T21:31:19.558Z,45.90
2022-12-16T21:34:04.260Z,51.10
2022-12-16T21:36:49.214Z,46.93
2022-12-16T21:39:34.316Z,46.00
2022-12-16T21:42:19.386Z,53.87
2022-12-16T21:45:04.180Z,49.60
2022-12-16T21:47:49.208Z,45.53
2022-12-16T21:50:34.218Z,48.23
2022-12-16T21:53:19.395Z,50.27
2022-12-16T21:56:10.536Z,45.57
2022-12-16T21:58:55.684Z,49.63
2022-12-16T22:01:40.482Z,45.30
2022-12-16T22:04:25.718Z,46.10
2022-12-16T22:07:24.510Z,46.70
2022-12-16T22:10:09.679Z,44.27
2022-12-16T22:12:56.198Z,46.20
2022-12-16T22:15:41.517Z,50.13
2022-12-16T22:18:26.629Z,45.63
2022-12-16T22:21:20.634Z,50.63
2022-12-16T22:24:05.717Z,56.80
2022-12-16T22:26:50.900Z,45.70
2022-12-16T22:29:38.675Z,46.23
2022-12-16T22:32:24.177Z,47.07
2022-12-16T22:35:09.048Z,45.90
2022-12-16T22:37:54.338Z,48.43
2022-12-16T22:40:41.292Z,51.70
2022-12-16T22:43:26.097Z,50.20
2022-12-16T22:46:21.735Z,49.00
2022-12-16T22:49:06.788Z,51.00
2022-12-16T22:51:52.382Z,105.30
2022-12-16T22:54:39.088Z,76.20
2022-12-16T22:57:24.144Z,49.70
2022-12-16T23:00:09.031Z,43.20
2022-12-16T23:02:54.834Z,48.77
2022-12-16T23:05:39.842Z,47.83
2022-12-16T23:08:24.551Z,42.60
2022-12-16T23:11:17.266Z,49.80
2022-12-16T23:14:02.560Z,43.50
2022-12-16T23:16:48.089Z,42.07
2022-12-16T23:19:33.116Z,42.53
2022-12-16T23:22:18.235Z,45.57
2022-12-16T23:25:03.330Z,45.47
2022-12-16T23:27:48.503Z,42.87
2022-12-16T23:30:33.544Z,47.50
2022-12-16T23:33:19.912Z,42.00
2022-12-16T23:36:04.911Z,44.83
2022-12-16T23:38:50.085Z,43.30
2022-12-16T23:41:35.223Z,43.93
2022-12-16T23:44:19.931Z,42.03
2022-12-16T23:47:04.852Z,45.50
2022-12-16T23:49:49.921Z,40.17
2022-12-16T23:52:35.047Z,45.67
2022-12-16T23:55:19.970Z,44.73
2022-12-16T23:58:05.168Z,43.37
